Time;durP1;ratioP1;P1;durP2;ratioP2;P2;SDS_P1;SDS_P2;PMS_P1;PMS_P2;Temp;Humidity;BMP_temperature;BMP_pressure;BME280_temperature;BME280_humidity;BME280_pressure;Samples;Min_cycle;Max_cycle;Signal;HPM_P1;HPM_P2
2021/11/18 00:01:32;;;;;;;9.30;6.50;;;22.30;55.30;;;;;;5035910;28;20407;-79
2021/11/18 00:03:59;;;;;;;8.70;6.40;;;22.30;55.30;;;;;;5018468;28;20430;-78
2021/11/18 00:06:27;;;;;;;7.70;5.97;;;22.30;55.30;;;;;;5011144;28;20456;-79
2021/11/18 00:08:54;;;;;;;9.03;6.60;;;22.30;55.30;;;;;;5018407;28;20435;-79
2021/11/18 00:11:23;;;;;;;7.23;6.40;;;22.30;55.30;;;;;;5034261;28;20435;-79
2021/11/18 00:13:54;;;;;;;8.53;6.33;;;22.30;55.30;;;;;;5016365;28;20440;-77
2021/11/18 00:16:21;;;;;;;10.20;7.43;;;22.30;55.30;;;;;;5015103;28;20419;-77
2021/11/18 00:18:46;;;;;;;7.77;5.80;;;22.30;55.30;;;;;;5015342;28;20503;-77
2021/11/18 00:21:28;;;;;;;9.80;7.30;;;22.30;55.30;;;;;;5014903;28;20411;-77
2021/11/18 00:23:55;;;;;;;9.60;6.23;;;22.30;55.30;;;;;;5015608;28;20426;-78
2021/11/18 00:26:26;;;;;;;7.60;6.00;;;22.30;55.30;;;;;;5015242;28;20459;-78
2021/11/18 00:28:52;;;;;;;8.13;6.50;;;22.30;55.30;;;;;;5032416;28;20420;-77
2021/11/18 00:31:29;;;;;;;7.90;5.63;;;22.30;55.30;;;;;;5014934;28;20427;-77
2021/11/18 00:33:56;;;;;;;8.43;6.50;;;22.30;55.30;;;;;;5015945;28;20415;-77
2021/11/18 00:36:22;;;;;;;8.87;6.27;;;22.20;55.20;;;;;;5012072;28;20500;-78
2021/11/18 00:38:56;;;;;;;7.67;5.80;;;22.20;55.20;;;;;;5012974;28;20471;-77
2021/11/18 00:41:22;;;;;;;7.57;6.00;;;22.20;55.20;;;;;;5014282;28;20482;-77
2021/11/18 00:43:48;;;;;;;9.30;6.90;;;22.20;55.20;;;;;;5024011;28;20447;-78
2021/11/18 00:46:15;;;;;;;8.60;6.40;;;22.20;55.20;;;;;;5014189;28;20455;-77
2021/11/18 00:48:45;;;;;;;8.17;6.53;;;22.30;55.30;;;;;;5015263;28;20407;-78
2021/11/18 00:51:16;;;;;;;7.30;5.50;;;22.30;55.30;;;;;;5033383;28;20419;-78
2021/11/18 00:53:50;;;;;;;9.00;6.63;;;22.20;55.20;;;;;;5025883;28;20410;-77
2021/11/18 00:56:21;;;;;;;9.10;6.13;;;22.30;55.30;;;;;;5035944;28;20414;-78
2021/11/18 00:58:51;;;;;;;8.90;6.40;;;22.20;55.30;;;;;;5023866;28;20431;-78
2021/11/18 01:01:18;;;;;;;7.47;5.00;;;22.20;55.80;;;;;;5016821;28;20495;-78
2021/11/18 01:03:44;;;;;;;9.47;6.77;;;22.20;55.30;;;;;;5014891;28;20426;-78
2021/11/18 01:06:12;;;;;;;7.13;5.37;;;22.20;55.30;;;;;;5015801;28;20522;-78
2021/11/18 01:08:38;;;;;;;9.40;5.90;;;22.20;55.30;;;;;;5016134;28;20194;-78
2021/11/18 01:11:20;;;;;;;10.17;5.73;;;22.20;55.30;;;;;;5031808;28;20450;-78
2021/11/18 01:13:46;;;;;;;7.87;5.90;;;22.20;55.30;;;;;;5033045;28;20421;-77
2021/11/18 01:16:16;;;;;;;7.63;5.70;;;22.20;55.30;;;;;;5052007;28;20406;-78
2021/11/18 01:18:43;;;;;;;8.50;5.30;;;22.20;55.30;;;;;;5035642;28;20461;-78
2021/11/18 01:21:10;;;;;;;7.70;6.00;;;22.20;55.30;;;;;;5052637;28;20421;-77
2021/11/18 01:23:42;;;;;;;6.57;5.90;;;22.20;55.30;;;;;;5053059;28;20394;-77
2021/11/18 01:26:10;;;;;;;6.20;5.57;;;22.20;55.30;;;;;;4980231;28;20472;-78
2021/11/18 01:28:38;;;;;;;8.73;5.93;;;22.20;55.30;;;;;;5014161;28;20396;-78
2021/11/18 01:31:04;;;;;;;7.80;5.37;;;22.20;55.30;;;;;;5015618;28;20924;-78
2021/11/18 01:33:30;;;;;;;9.50;6.00;;;22.20;55.20;;;;;;5032341;28;20423;-78
2021/11/18 01:35:57;;;;;;;6.70;5.63;;;22.20;55.20;;;;;;5004826;28;20432;-78
2021/11/18 01:38:24;;;;;;;8.00;5.53;;;22.20;55.20;;;;;;5015115;28;20420;-78
2021/11/18 01:40:56;;;;;;;7.70;5.87;;;22.20;55.20;;;;;;5014932;28;20458;-78
2021/11/18 01:43:26;;;;;;;7.13;5.50;;;22.20;55.20;;;;;;5015376;28;20431;-78
2021/11/18 01:45:52;;;;;;;6.27;5.57;;;22.20;55.20;;;;;;5015348;28;20523;-77
2021/11/18 01:48:19;;;;;;;7.50;5.67;;;22.20;55.20;;;;;;5029929;28;20415;-79
2021/11/18 01:50:48;;;;;;;6.90;5.50;;;22.20;55.20;;;;;;5026276;28;20893;-79
2021/11/18 01:53:27;;;;;;;6.90;5.83;;;22.20;55.20;;;;;;5008647;28;20466;-79
2021/11/18 01:55:53;;;;;;;6.70;5.87;;;22.20;55.20;;;;;;5009137;28;20423;-79
2021/11/18 01:58:21;;;;;;;7.07;5.40;;;22.20;55.20;;;;;;5025840;28;20463;-79
2021/11/18 02:00:56;;;;;;;8.17;5.93;;;22.20;55.30;;;;;;5028030;28;20187;-78
2021/11/18 02:03:22;;;;;;;7.60;5.30;;;22.20;55.20;;;;;;5027464;28;20412;-78
2021/11/18 02:05:59;;;;;;;6.73;5.00;;;22.20;55.30;;;;;;5009360;28;20523;-78
2021/11/18 02:08:25;;;;;;;7.23;5.67;;;22.20;55.20;;;;;;5029301;28;20187;-79
2021/11/18 02:10:55;;;;;;;6.27;5.67;;;22.20;55.30;;;;;;5010504;28;20468;-79
2021/11/18 02:13:22;;;;;;;6.90;5.03;;;22.20;55.30;;;;;;5009085;28;20192;-80
2021/11/18 02:15:53;;;;;;;6.40;5.30;;;22.20;55.30;;;;;;5008437;28;20511;-80
2021/11/18 02:18:34;;;;;;;7.20;5.07;;;22.20;55.30;;;;;;5027868;28;20411;-80
2021/11/18 02:21:05;;;;;;;7.50;5.17;;;22.20;55.30;;;;;;5012633;28;20525;-79
2021/11/18 02:23:38;;;;;;;6.50;5.10;;;22.20;55.30;;;;;;5013058;28;20399;-78
2021/11/18 02:26:04;;;;;;;6.60;4.87;;;22.20;55.90;;;;;;5032507;28;20442;-80
2021/11/18 02:28:42;;;;;;;5.80;4.70;;;22.20;55.30;;;;;;5014726;28;20423;-80
2021/11/18 02:31:24;;;;;;;6.07;4.80;;;22.10;55.20;;;;;;5029544;28;20472;-79
2021/11/18 02:33:51;;;;;;;8.03;5.00;;;22.20;55.30;;;;;;5032957;28;20407;-79
2021/11/18 02:36:19;;;;;;;7.00;5.77;;;22.10;55.30;;;;;;5014516;28;20415;-80
2021/11/18 02:38:45;;;;;;;7.43;5.10;;;22.20;55.30;;;;;;5030235;28;20465;-79
2021/11/18 02:41:13;;;;;;;6.77;5.57;;;22.10;55.20;;;;;;5034039;28;20427;-78
2021/11/18 02:43:39;;;;;;;5.90;5.13;;;22.10;55.20;;;;;;5034491;28;20412;-78
2021/11/18 02:46:06;;;;;;;9.20;6.07;;;22.10;55.20;;;;;;5031992;28;20463;-79
2021/11/18 02:48:32;;;;;;;6.70;5.13;;;22.10;55.20;;;;;;5016991;28;20424;-79
2021/11/18 02:51:00;;;;;;;6.67;5.23;;;22.10;55.20;;;;;;5015504;28;20856;-79
2021/11/18 02:53:26;;;;;;;6.13;5.33;;;22.10;55.20;;;;;;5013231;28;20419;-78
2021/11/18 02:55:53;;;;;;;6.20;5.13;;;22.10;55.20;;;;;;5014022;28;20419;-79
2021/11/18 02:58:21;;;;;;;7.03;4.80;;;22.10;55.20;;;;;;5031995;28;20422;-78
2021/11/18 03:01:13;;;;;;;6.60;5.20;;;22.10;55.20;;;;;;5014363;28;20424;-79
2021/11/18 03:03:40;;;;;;;6.63;4.80;;;22.10;55.20;;;;;;5031079;28;20407;-78
2021/11/18 03:06:07;;;;;;;6.33;5.63;;;22.10;55.30;;;;;;5013163;28;20562;-78
2021/11/18 03:08:34;;;;;;;9.63;5.90;;;22.10;55.20;;;;;;5031310;28;20754;-78
2021/11/18 03:11:06;;;;;;;7.00;5.40;;;22.10;55.30;;;;;;5014089;28;20439;-79
2021/11/18 03:13:32;;;;;;;5.83;4.43;;;22.10;55.30;;;;;;5031150;28;20396;-79
2021/11/18 03:15:59;;;;;;;6.07;4.83;;;22.10;55.20;;;;;;5014473;28;20419;-79
2021/11/18 03:18:27;;;;;;;5.30;4.67;;;22.10;55.20;;;;;;5031166;28;20412;-79
2021/11/18 03:20:55;;;;;;;6.93;5.60;;;22.10;55.20;;;;;;5013846;28;20477;-78
2021/11/18 03:23:22;;;;;;;6.30;5.37;;;22.10;55.20;;;;;;5014328;28;20438;-78
2021/11/18 03:25:51;;;;;;;6.60;4.90;;;22.10;55.20;;;;;;5014008;28;20459;-79
2021/11/18 03:28:21;;;;;;;6.50;4.80;;;22.10;55.20;;;;;;5013450;28;20423;-79
2021/11/18 03:30:49;;;;;;;6.50;5.37;;;22.10;55.20;;;;;;5013908;28;20412;-78
2021/11/18 03:33:24;;;;;;;6.07;4.90;;;22.10;55.20;;;;;;5015848;28;20506;-78
2021/11/18 03:35:51;;;;;;;5.63;4.77;;;22.10;55.20;;;;;;5016817;28;20419;-78
2021/11/18 03:38:17;;;;;;;6.63;5.13;;;22.10;55.20;;;;;;5013465;28;20509;-78
2021/11/18 03:40:50;;;;;;;7.53;5.10;;;22.10;55.20;;;;;;5032609;28;20417;-78
2021/11/18 03:43:20;;;;;;;6.17;4.80;;;22.10;55.20;;;;;;5014905;28;20407;-78
2021/11/18 03:45:47;;;;;;;6.33;4.50;;;22.10;55.20;;;;;;5031071;28;20820;-78
2021/11/18 03:48:16;;;;;;;6.63;4.63;;;22.10;55.20;;;;;;5014706;28;20427;-78
2021/11/18 03:50:43;;;;;;;7.40;5.40;;;22.10;55.30;;;;;;5029365;28;20451;-79
2021/11/18 03:53:10;;;;;;;6.23;4.73;;;22.10;55.20;;;;;;5011992;28;20403;-78
2021/11/18 03:55:36;;;;;;;6.03;4.77;;;22.10;55.80;;;;;;5030330;28;20419;-79
2021/11/18 03:58:06;;;;;;;6.03;4.57;;;22.10;55.30;;;;;;5013789;28;20431;-79
2021/11/18 04:00:35;;;;;;;5.47;4.57;;;22.10;55.20;;;;;;5032551;28;20177;-79
2021/11/18 04:03:03;;;;;;;6.23;4.53;;;22.10;55.20;;;;;;5016257;28;20446;-79
2021/11/18 04:05:30;;;;;;;5.43;4.50;;;22.10;55.20;;;;;;5018053;28;20479;-79
2021/11/18 04:07:56;;;;;;;5.33;4.80;;;22.10;55.20;;;;;;5018810;28;20426;-79
2021/11/18 04:10:25;;;;;;;5.00;4.40;;;22.10;55.30;;;;;;5038028;28;20408;-79
2021/11/18 04:12:54;;;;;;;6.20;5.00;;;22.10;55.30;;;;;;5020290;28;20244;-79
2021/11/18 04:15:23;;;;;;;5.60;4.50;;;22.10;55.20;;;;;;5020499;28;20411;-78
2021/11/18 04:17:52;;;;;;;5.20;4.67;;;22.10;55.20;;;;;;5020321;28;20419;-79
2021/11/18 04:20:18;;;;;;;6.47;4.70;;;22.10;55.30;;;;;;5020198;28;20416;-79
2021/11/18 04:26:06;;;;;;;5.67;4.57;;;22.10;55.20;;;;;;5036423;28;20519;-79
2021/11/18 04:28:33;;;;;;;4.37;3.83;;;22.10;55.30;;;;;;5036285;28;20399;-79
2021/11/18 04:31:03;;;;;;;5.53;5.00;;;22.10;55.30;;;;;;5019956;28;20175;-79
2021/11/18 04:33:31;;;;;;;5.60;4.10;;;22.10;55.30;;;;;;5037389;28;20419;-79
2021/11/18 04:35:58;;;;;;;6.90;5.10;;;22.10;55.30;;;;;;5019584;28;20434;-78
2021/11/18 04:38:26;;;;;;;6.00;4.67;;;22.10;55.30;;;;;;5017637;28;20437;-78
2021/11/18 04:40:52;;;;;;;4.90;4.00;;;22.10;55.30;;;;;;5018076;28;20427;-77
2021/11/18 04:43:19;;;;;;;5.43;4.03;;;22.10;55.30;;;;;;5017921;28;20423;-77
2021/11/18 04:45:45;;;;;;;5.73;4.37;;;22.10;55.30;;;;;;5015177;28;20466;-79
2021/11/18 04:48:10;;;;;;;5.83;4.53;;;22.10;55.20;;;;;;5033026;28;20407;-79
2021/11/18 04:50:37;;;;;;;5.00;4.50;;;22.10;55.20;;;;;;5015034;28;20176;-79
2021/11/18 04:53:04;;;;;;;6.30;4.80;;;22.10;55.20;;;;;;5030489;28;20173;-79
2021/11/18 04:55:31;;;;;;;6.07;4.40;;;22.10;55.30;;;;;;5010470;28;20431;-79
2021/11/18 04:57:57;;;;;;;5.13;4.00;;;22.10;55.20;;;;;;5023249;28;20463;-79
2021/11/18 05:00:29;;;;;;;5.97;4.60;;;22.00;55.20;;;;;;5036167;28;20438;-79
2021/11/18 05:02:57;;;;;;;5.53;4.00;;;22.10;55.30;;;;;;5031483;28;20161;-78
2021/11/18 05:05:25;;;;;;;4.97;4.10;;;22.10;55.30;;;;;;5013354;28;20427;-79
2021/11/18 05:07:51;;;;;;;6.53;4.27;;;22.10;55.30;;;;;;5031148;28;20429;-79
2021/11/18 05:10:18;;;;;;;4.83;3.73;;;22.10;55.30;;;;;;5013825;28;20415;-78
2021/11/18 05:12:45;;;;;;;7.27;3.90;;;22.00;55.20;;;;;;5031251;28;20459;-79
2021/11/18 05:15:17;;;;;;;4.50;3.90;;;22.00;55.20;;;;;;5013567;28;20465;-78
2021/11/18 05:17:44;;;;;;;4.53;3.70;;;22.00;55.20;;;;;;5031070;28;20388;-79
2021/11/18 05:20:11;;;;;;;5.50;4.23;;;22.00;55.20;;;;;;5014294;28;20476;-78
2021/11/18 05:22:43;;;;;;;6.00;4.70;;;22.00;55.20;;;;;;5015601;28;20439;-78
2021/11/18 05:25:10;;;;;;;5.03;4.23;;;22.00;55.20;;;;;;5014604;28;20449;-79
2021/11/18 05:27:35;;;;;;;4.87;3.97;;;22.00;55.30;;;;;;5031397;28;20439;-78
2021/11/18 05:30:03;;;;;;;4.17;3.77;;;22.00;55.30;;;;;;5013458;28;20423;-78
2021/11/18 05:32:28;;;;;;;6.80;4.67;;;22.00;55.30;;;;;;5015239;28;20180;-79
2021/11/18 05:34:54;;;;;;;6.97;5.07;;;22.00;55.30;;;;;;5014984;28;20518;-78
2021/11/18 05:37:21;;;;;;;5.93;4.37;;;22.00;55.80;;;;;;5011921;28;20176;-81
2021/11/18 05:39:59;;;;;;;5.97;5.23;;;22.00;55.10;;;;;;5031595;28;20168;-80
2021/11/18 05:42:25;;;;;;;6.90;3.83;;;22.00;55.10;;;;;;5013575;28;20447;-79
2021/11/18 05:44:51;;;;;;;5.27;3.67;;;22.00;55.10;;;;;;5011367;28;20423;-79
2021/11/18 05:47:19;;;;;;;4.77;3.97;;;22.00;55.10;;;;;;5011743;28;20583;-80
2021/11/18 05:49:45;;;;;;;4.67;3.63;;;22.00;55.20;;;;;;5012083;28;20408;-79
2021/11/18 05:52:12;;;;;;;5.63;4.30;;;22.00;55.10;;;;;;5026234;28;20410;-80
2021/11/18 05:54:38;;;;;;;4.93;3.97;;;22.00;55.10;;;;;;5013058;28;20423;-80
2021/11/18 05:57:05;;;;;;;5.90;3.90;;;22.00;55.10;;;;;;5013427;28;20426;-80
2021/11/18 05:59:31;;;;;;;4.87;3.80;;;22.00;55.10;;;;;;5013825;28;20451;-79
2021/11/18 06:01:56;;;;;;;5.40;4.33;;;22.00;55.10;;;;;;5031884;28;20411;-80
2021/11/18 06:04:23;;;;;;;4.17;3.70;;;22.00;55.10;;;;;;5014886;28;20188;-80
2021/11/18 06:06:48;;;;;;;5.23;4.23;;;22.00;55.10;;;;;;5031409;28;20457;-78
2021/11/18 06:09:14;;;;;;;5.30;3.63;;;22.00;55.10;;;;;;5032110;28;20431;-80
2021/11/18 06:11:42;;;;;;;6.17;3.80;;;22.00;55.10;;;;;;5033802;28;20184;-80
2021/11/18 06:14:08;;;;;;;5.80;3.70;;;22.00;55.10;;;;;;5017742;28;20792;-79
2021/11/18 06:16:35;;;;;;;4.07;3.67;;;22.00;55.10;;;;;;5033937;28;20414;-80
2021/11/18 06:19:01;;;;;;;5.00;3.90;;;22.00;55.10;;;;;;5033278;28;20422;-79
2021/11/18 06:21:29;;;;;;;4.90;4.27;;;22.10;55.10;;;;;;5016875;28;20430;-80
2021/11/18 06:23:57;;;;;;;4.30;3.90;;;22.10;55.10;;;;;;5033506;28;20906;-79
2021/11/18 06:26:25;;;;;;;3.40;3.00;;;22.10;55.10;;;;;;5016181;28;20469;-80
2021/11/18 06:28:54;;;;;;;4.63;4.20;;;22.10;55.10;;;;;;5016608;28;20427;-79
2021/11/18 06:31:23;;;;;;;4.63;3.50;;;22.10;55.10;;;;;;5033938;28;20419;-80
2021/11/18 06:33:49;;;;;;;5.43;4.00;;;22.10;55.10;;;;;;5035127;28;20437;-80
2021/11/18 06:36:16;;;;;;;4.80;3.90;;;22.10;55.10;;;;;;5033643;28;20406;-80
2021/11/18 06:38:44;;;;;;;4.70;4.17;;;22.10;55.10;;;;;;5015074;28;20475;-80
2021/11/18 06:41:11;;;;;;;4.90;4.17;;;22.10;55.10;;;;;;5034168;28;20411;-79
2021/11/18 06:43:38;;;;;;;4.90;3.60;;;22.10;55.10;;;;;;5032055;28;20404;-80
2021/11/18 06:46:04;;;;;;;5.23;3.67;;;22.10;55.00;;;;;;5031909;28;20538;-79
2021/11/18 06:48:31;;;;;;;5.10;4.07;;;22.10;55.00;;;;;;5033369;28;20407;-80
2021/11/18 06:51:05;;;;;;;5.17;4.07;;;22.10;55.10;;;;;;4996478;28;20411;-79
2021/11/18 06:53:31;;;;;;;4.70;3.67;;;22.10;55.00;;;;;;5029820;28;20414;-79
2021/11/18 06:55:58;;;;;;;5.10;4.27;;;22.10;55.10;;;;;;5012133;28;20446;-79
2021/11/18 06:58:24;;;;;;;5.27;3.93;;;22.10;55.00;;;;;;5029643;28;20411;-80
2021/11/18 07:00:50;;;;;;;4.33;3.90;;;22.10;55.00;;;;;;5011931;28;20419;-79
2021/11/18 07:03:16;;;;;;;4.50;3.37;;;22.10;55.00;;;;;;5012167;28;20490;-78
2021/11/18 07:06:13;;;;;;;4.20;3.60;;;22.10;55.00;;;;;;5029216;28;20522;-80
2021/11/18 07:08:39;;;;;;;3.77;3.20;;;22.20;55.10;;;;;;5012416;28;20430;-79
2021/11/18 07:11:05;;;;;;;4.67;3.93;;;22.10;55.10;;;;;;5029779;28;20451;-79
2021/11/18 07:13:33;;;;;;;4.00;3.50;;;22.10;55.00;;;;;;5012518;28;20187;-79
2021/11/18 07:16:00;;;;;;;4.30;3.60;;;22.10;55.00;;;;;;5013224;28;20416;-79
2021/11/18 07:18:27;;;;;;;4.57;3.77;;;22.20;55.10;;;;;;5012443;28;20416;-80
2021/11/18 07:20:53;;;;;;;4.20;3.43;;;22.20;55.10;;;;;;4996504;28;20483;-79
2021/11/18 07:23:20;;;;;;;5.00;3.27;;;22.20;55.10;;;;;;5031777;28;20407;-77
2021/11/18 07:25:48;;;;;;;5.50;3.37;;;22.20;55.10;;;;;;5014455;28;20235;-78
2021/11/18 07:28:22;;;;;;;5.03;4.20;;;22.20;55.10;;;;;;5013124;28;20423;-79
2021/11/18 07:30:49;;;;;;;5.50;4.13;;;22.20;55.10;;;;;;5013878;28;20416;-79
2021/11/18 07:33:17;;;;;;;5.00;3.70;;;22.10;55.10;;;;;;5033355;28;20443;-79
2021/11/18 07:35:44;;;;;;;4.67;3.33;;;22.20;55.10;;;;;;5031544;28;20438;-79
2021/11/18 07:38:10;;;;;;;4.43;4.03;;;22.20;55.10;;;;;;5030819;28;20437;-79
2021/11/18 07:40:37;;;;;;;3.83;3.43;;;22.20;55.10;;;;;;5015759;28;20427;-80
2021/11/18 07:43:07;;;;;;;3.87;3.47;;;22.20;55.60;;;;;;5013843;28;20416;-79
2021/11/18 07:45:33;;;;;;;5.67;3.77;;;22.20;55.00;;;;;;5012723;28;20455;-80
2021/11/18 07:48:00;;;;;;;4.40;3.50;;;22.20;55.00;;;;;;5014765;28;20416;-80
2021/11/18 07:50:27;;;;;;;4.60;3.30;;;22.20;55.10;;;;;;5030016;28;20403;-80
2021/11/18 07:52:53;;;;;;;6.37;3.97;;;22.20;55.10;;;;;;5030007;28;20917;-80
2021/11/18 07:55:21;;;;;;;5.47;3.67;;;22.30;55.10;;;;;;5012559;28;20419;-79
2021/11/18 07:57:48;;;;;;;4.63;4.00;;;22.30;55.10;;;;;;5011268;28;20699;-79
2021/11/18 08:00:17;;;;;;;3.90;3.13;;;22.30;55.10;;;;;;5011355;28;20415;-79
2021/11/18 08:02:44;;;;;;;4.07;3.67;;;22.30;55.10;;;;;;5028820;28;20415;-79
2021/11/18 08:05:10;;;;;;;3.97;3.30;;;22.30;55.10;;;;;;5012232;28;20415;-80
2021/11/18 08:07:36;;;;;;;4.30;3.50;;;22.30;55.10;;;;;;5029314;28;20541;-80
2021/11/18 08:10:04;;;;;;;5.00;3.87;;;22.30;55.10;;;;;;5029444;28;20438;-80
2021/11/18 08:12:34;;;;;;;6.13;3.83;;;22.30;55.10;;;;;;5011844;28;20467;-79
2021/11/18 08:14:59;;;;;;;4.60;3.53;;;22.30;55.10;;;;;;5029844;28;20434;-79
2021/11/18 08:17:25;;;;;;;3.10;2.60;;;22.30;55.10;;;;;;5011287;28;20443;-79
2021/11/18 08:23:14;;;;;;;4.00;3.27;;;22.40;55.10;;;;;;5029929;28;20175;-79
2021/11/18 08:25:40;;;;;;;4.67;3.60;;;22.30;55.10;;;;;;5011944;28;20467;-79
2021/11/18 08:31:28;;;;;;;4.07;3.37;;;22.30;55.10;;;;;;5030983;28;20168;-79
2021/11/18 08:33:55;;;;;;;4.20;3.33;;;22.30;55.20;;;;;;5032471;28;20399;-79
2021/11/18 08:36:21;;;;;;;4.30;3.60;;;22.30;55.20;;;;;;5012647;28;20503;-79
2021/11/18 08:38:48;;;;;;;3.70;3.00;;;22.40;55.20;;;;;;5030943;28;20423;-79
2021/11/18 08:41:16;;;;;;;3.80;3.07;;;22.40;55.20;;;;;;5014389;28;20450;-77
2021/11/18 08:43:44;;;;;;;3.77;3.33;;;22.40;55.30;;;;;;5028823;28;20422;-79
2021/11/18 08:46:45;;;;;;;4.33;3.23;;;22.40;55.20;;;;;;5030874;28;20479;-78
2021/11/18 08:49:10;;;;;;;3.83;3.20;;;22.40;55.20;;;;;;5030066;28;20407;-78
2021/11/18 08:51:36;;;;;;;4.40;3.40;;;22.40;55.20;;;;;;5028098;28;20461;-79
2021/11/18 08:54:09;;;;;;;3.70;3.10;;;22.40;55.20;;;;;;5010231;28;20184;-80
2021/11/18 08:56:38;;;;;;;4.30;3.37;;;22.40;55.20;;;;;;5028662;28;20175;-80
2021/11/18 08:59:05;;;;;;;3.33;3.03;;;22.40;55.20;;;;;;5029036;28;20423;-79
2021/11/18 09:01:43;;;;;;;5.00;3.83;;;22.40;55.20;;;;;;5028772;28;20391;-79
2021/11/18 09:04:18;;;;;;;3.60;3.07;;;22.40;55.20;;;;;;5028210;28;20901;-80
2021/11/18 09:06:45;;;;;;;5.20;3.87;;;22.40;55.20;;;;;;5011045;28;20457;-80
2021/11/18 09:09:13;;;;;;;4.40;3.10;;;22.40;55.20;;;;;;5010101;28;20450;-79
2021/11/18 09:11:41;;;;;;;4.17;3.23;;;22.40;55.20;;;;;;5028161;28;20426;-80
2021/11/18 09:14:08;;;;;;;4.40;3.27;;;22.40;55.20;;;;;;5028243;28;20415;-79
2021/11/18 09:16:37;;;;;;;4.43;3.50;;;22.40;55.20;;;;;;5031158;28;20465;-79
2021/11/18 09:19:04;;;;;;;3.17;2.80;;;22.40;55.20;;;;;;5014401;28;20442;-79
2021/11/18 09:21:34;;;;;;;3.97;3.20;;;22.40;55.20;;;;;;5014588;28;20414;-79
2021/11/18 09:24:18;;;;;;;6.07;3.20;;;22.50;55.30;;;;;;5031806;28;20408;-79
2021/11/18 09:26:49;;;;;;;5.23;2.93;;;22.50;55.30;;;;;;5033579;28;20443;-79
2021/11/18 09:29:16;;;;;;;4.00;3.30;;;22.50;55.30;;;;;;5018018;28;20403;-80
2021/11/18 09:31:43;;;;;;;3.27;2.60;;;22.50;55.30;;;;;;5034963;28;20403;-80
2021/11/18 09:34:10;;;;;;;2.63;2.33;;;22.50;55.30;;;;;;5017831;28;20435;-79
2021/11/18 09:36:36;;;;;;;4.40;3.20;;;22.50;55.30;;;;;;5033605;28;20407;-80
2021/11/18 09:39:04;;;;;;;5.40;2.80;;;22.50;55.30;;;;;;5034711;28;20427;-80
2021/11/18 09:41:58;;;;;;;3.90;3.00;;;22.50;55.30;;;;;;5010499;28;20177;-80
2021/11/18 09:44:42;;;;;;;3.70;3.00;;;22.50;55.20;;;;;;5033022;28;20422;-79
2021/11/18 09:48:02;;;;;;;3.80;2.60;;;22.50;55.30;;;;;;5032621;28;20467;-79
2021/11/18 09:50:58;;;;;;;3.40;2.90;;;22.50;55.20;;;;;;4953632;29;20407;-79
2021/11/18 09:53:48;;;;;;;5.67;3.33;;;22.50;55.30;;;;;;5012131;28;20423;-79
2021/11/18 09:56:54;;;;;;;4.53;3.30;;;22.50;55.40;;;;;;4996329;28;20420;-79
2021/11/18 09:59:33;;;;;;;3.40;2.80;;;22.50;55.40;;;;;;4996213;28;20430;-79
2021/11/18 10:02:36;;;;;;;4.13;3.63;;;22.50;55.40;;;;;;4996663;28;20891;-79
2021/11/18 10:05:11;;;;;;;4.13;3.73;;;22.50;55.40;;;;;;5013244;28;20398;-79
2021/11/18 10:07:44;;;;;;;4.90;4.03;;;22.50;55.40;;;;;;5013326;28;20439;-79
2021/11/18 10:10:34;;;;;;;5.57;5.07;;;22.50;55.40;;;;;;4996652;28;20424;-81
2021/11/18 10:13:18;;;;;;;5.57;4.97;;;22.50;55.40;;;;;;5033732;28;20431;-81
2021/11/18 10:15:59;;;;;;;6.70;5.93;;;22.50;55.40;;;;;;5035661;28;20770;-81
2021/11/18 10:18:30;;;;;;;7.87;7.10;;;22.50;55.40;;;;;;5033586;28;20411;-81
2021/11/18 10:21:05;;;;;;;7.27;6.50;;;22.50;55.40;;;;;;5018189;28;20430;-81
2021/11/18 10:23:31;;;;;;;6.73;5.97;;;22.50;55.40;;;;;;5019835;28;20424;-81
2021/11/18 10:26:03;;;;;;;7.70;6.90;;;22.50;55.40;;;;;;5032250;28;20518;-81
2021/11/18 10:28:39;;;;;;;7.37;6.47;;;22.50;55.40;;;;;;5042125;28;20427;-82
2021/11/18 10:31:17;;;;;;;8.00;6.80;;;22.50;55.40;;;;;;5011779;28;20431;-82
2021/11/18 10:34:15;;;;;;;6.57;5.40;;;22.50;55.40;;;;;;5016708;28;20837;-79
2021/11/18 10:37:03;;;;;;;7.63;6.47;;;22.60;55.40;;;;;;5007851;28;20736;-79
2021/11/18 10:39:48;;;;;;;7.70;6.43;;;22.60;55.50;;;;;;5028335;28;20407;-81
2021/11/18 10:42:20;;;;;;;7.97;6.53;;;22.50;55.40;;;;;;5013632;28;20423;-80
2021/11/18 10:44:54;;;;;;;8.20;6.90;;;22.50;55.40;;;;;;5025494;28;20931;-79
2021/11/18 10:47:41;;;;;;;6.57;5.93;;;22.50;55.40;;;;;;5026115;28;20526;-80
2021/11/18 10:50:22;;;;;;;8.63;6.60;;;22.50;55.40;;;;;;5026838;28;20746;-80
2021/11/18 10:53:21;;;;;;;8.80;6.80;;;22.60;55.50;;;;;;5016528;28;20828;-80
2021/11/18 10:56:01;;;;;;;8.93;6.43;;;22.60;55.40;;;;;;5023759;28;20423;-80
2021/11/18 10:58:26;;;;;;;7.60;6.80;;;22.50;55.40;;;;;;5027905;28;20426;-79
2021/11/18 11:01:04;;;;;;;6.20;5.60;;;22.50;55.40;;;;;;5014885;28;20504;-79
2021/11/18 11:03:39;;;;;;;7.93;6.10;;;22.60;55.50;;;;;;5009500;28;20188;-79
2021/11/18 11:06:22;;;;;;;8.73;7.00;;;22.60;55.50;;;;;;5022171;28;20454;-79
2021/11/18 11:08:50;;;;;;;6.60;5.67;;;22.60;55.40;;;;;;5028610;28;20419;-79
2021/11/18 11:11:53;;;;;;;8.13;5.97;;;22.60;55.50;;;;;;5022024;28;20407;-79
2021/11/18 11:14:38;;;;;;;6.37;5.60;;;22.60;55.40;;;;;;5026061;28;20426;-79
2021/11/18 11:17:20;;;;;;;7.60;5.93;;;22.50;55.40;;;;;;5030203;28;20447;-79
2021/11/18 11:20:09;;;;;;;7.03;5.20;;;22.60;55.50;;;;;;5026934;28;20411;-81
2021/11/18 11:22:57;;;;;;;6.77;5.83;;;22.60;55.50;;;;;;5002910;28;20416;-79
2021/11/18 11:25:38;;;;;;;5.60;5.10;;;22.60;55.50;;;;;;5012784;28;20420;-79
2021/11/18 11:28:41;;;;;;;6.47;5.23;;;22.50;55.50;;;;;;5022552;28;20411;-79
2021/11/18 11:31:29;;;;;;;7.80;5.47;;;22.60;55.50;;;;;;5028911;28;20450;-79
2021/11/18 11:34:06;;;;;;;6.37;5.40;;;22.60;55.50;;;;;;5030300;28;20467;-78
2021/11/18 11:36:57;;;;;;;5.33;4.23;;;22.50;55.50;;;;;;5007632;28;20420;-78
2021/11/18 11:39:34;;;;;;;6.80;5.07;;;22.50;55.50;;;;;;5038063;28;20427;-77
2021/11/18 11:42:40;;;;;;;6.90;5.60;;;22.50;55.50;;;;;;5026654;28;20486;-79
2021/11/18 11:45:21;;;;;;;6.03;4.77;;;22.60;55.50;;;;;;5025083;28;20461;-79
2021/11/18 11:48:06;;;;;;;5.53;4.60;;;22.50;56.10;;;;;;5019328;28;20451;-80
2021/11/18 11:51:08;;;;;;;6.40;5.40;;;22.50;55.50;;;;;;5029318;28;20404;-78
2021/11/18 11:53:59;;;;;;;6.83;4.83;;;22.50;55.50;;;;;;5034961;28;20497;-78
2021/11/18 11:56:35;;;;;;;5.20;4.20;;;22.50;55.50;;;;;;5032683;28;20859;-79
2021/11/18 11:59:18;;;;;;;6.63;5.20;;;22.50;55.50;;;;;;5022232;28;20430;-79
2021/11/18 12:02:27;;;;;;;6.40;4.40;;;22.50;55.50;;;;;;5019721;28;20431;-79
2021/11/18 12:05:15;;;;;;;5.37;4.50;;;22.60;55.60;;;;;;5018083;28;20415;-78
2021/11/18 12:08:02;;;;;;;4.70;4.27;;;22.50;55.50;;;;;;5027753;28;20428;-78
2021/11/18 12:11:06;;;;;;;5.80;4.80;;;22.50;55.50;;;;;;5030534;28;20487;-82
2021/11/18 12:13:35;;;;;;;4.00;3.50;;;22.50;56.10;;;;;;5024861;28;20420;-78
2021/11/18 12:16:35;;;;;;;4.40;3.87;;;22.50;55.60;;;;;;5024023;28;20415;-78
2021/11/18 12:19:40;;;;;;;4.83;3.70;;;22.50;55.50;;;;;;5028604;28;20482;-78
2021/11/18 12:22:27;;;;;;;5.60;4.10;;;22.50;55.60;;;;;;4948943;29;20478;-80
2021/11/18 12:24:59;;;;;;;4.60;4.10;;;22.50;55.50;;;;;;5022598;28;20479;-81
2021/11/18 12:27:31;;;;;;;5.67;4.27;;;22.50;55.60;;;;;;5030747;28;20460;-81
2021/11/18 12:30:17;;;;;;;5.23;4.73;;;22.50;55.50;;;;;;5026761;28;20438;-80
2021/11/18 12:33:04;;;;;;;4.67;4.07;;;22.50;55.50;;;;;;5022833;28;20424;-80
2021/11/18 12:42:18;;;;;;;7.93;4.40;;;22.50;55.60;;;;;;5030862;28;20419;-80
2021/11/18 12:45:01;;;;;;;5.30;3.40;;;22.40;55.60;;;;;;5023689;28;20450;-80
2021/11/18 12:47:48;;;;;;;4.03;3.43;;;22.50;55.60;;;;;;5030507;28;20553;-80
2021/11/18 12:50:42;;;;;;;4.13;3.63;;;22.50;55.60;;;;;;5024132;28;20420;-78
2021/11/18 12:53:11;;;;;;;7.40;3.80;;;22.50;55.60;;;;;;5021530;28;20401;-79
2021/11/18 12:55:43;;;;;;;4.50;3.50;;;22.40;55.50;;;;;;5023305;28;20408;-78
2021/11/18 12:58:27;;;;;;;4.53;4.03;;;22.40;55.50;;;;;;5029019;28;20427;-77
2021/11/18 13:01:00;;;;;;;4.90;3.47;;;22.50;55.60;;;;;;5031159;28;20415;-78
2021/11/18 13:03:44;;;;;;;4.70;3.70;;;22.40;55.50;;;;;;5025660;28;20418;-78
2021/11/18 13:06:11;;;;;;;4.37;3.73;;;22.40;55.50;;;;;;5030743;28;20455;-80
2021/11/18 13:08:40;;;;;;;4.47;3.37;;;22.40;55.50;;;;;;5035158;28;20404;-78
2021/11/18 13:11:25;;;;;;;3.77;3.07;;;22.40;55.50;;;;;;5031594;28;20391;-79
2021/11/18 13:14:09;;;;;;;3.83;3.43;;;22.40;55.50;;;;;;5027756;28;20425;-77
2021/11/18 13:16:53;;;;;;;4.10;3.20;;;22.40;55.50;;;;;;5016681;28;20443;-77
2021/11/18 13:19:53;;;;;;;4.00;3.57;;;22.40;55.50;;;;;;5023666;28;20416;-76
2021/11/18 13:22:40;;;;;;;6.40;3.80;;;22.40;55.60;;;;;;5009967;28;20520;-77
2021/11/18 13:25:20;;;;;;;5.37;3.77;;;22.40;55.60;;;;;;5026245;28;20423;-78
2021/11/18 13:28:00;;;;;;;5.67;3.80;;;22.40;55.60;;;;;;5029575;28;20435;-77
2021/11/18 13:30:53;;;;;;;5.10;4.23;;;22.40;55.60;;;;;;5028114;28;20447;-77
2021/11/18 13:33:28;;;;;;;4.07;3.20;;;22.40;55.60;;;;;;5029882;28;20484;-77